sensor_id;sensor_type;location;lat;lon;timestamp;temperature;humidity
20446;DHT22;10382;49.140;9.234;2023-03-14T00:00:12;11.60;99.90
20446;DHT22;10382;49.140;9.234;2023-03-14T00:02:40;11.60;99.90
20446;DHT22;10382;49.140;9.234;2023-03-14T00:05:08;11.60;99.90
20446;DHT22;10382;49.140;9.234;2023-03-14T00:07:36;11.70;99.90
20446;DHT22;10382;49.140;9.234;2023-03-14T00:10:05;11.70;99.90
20446;DHT22;10382;49.140;9.234;2023-03-14T00:12:32;11.70;99.90
20446;DHT22;10382;49.140;9.234;2023-03-14T00:15:00;11.70;99.90
20446;DHT22;10382;49.140;9.234;2023-03-14T00:17:29;11.80;99.90
20446;DHT22;10382;49.140;9.234;2023-03-14T00:19:56;11.80;99.90
20446;DHT22;10382;49.140;9.234;2023-03-14T00:22:29;11.80;99.90
20446;DHT22;10382;49.140;9.234;2023-03-14T00:24:56;11.80;99.90
20446;DHT22;10382;49.140;9.234;2023-03-14T00:27:23;11.80;99.90
20446;DHT22;10382;49.140;9.234;2023-03-14T00:29:50;11.80;99.90
20446;DHT22;10382;49.140;9.234;2023-03-14T00:32:18;11.90;99.90
20446;DHT22;10382;49.140;9.234;2023-03-14T00:34:45;11.90;99.90
20446;DHT22;10382;49.140;9.234;2023-03-14T00:37:11;11.90;99.90
20446;DHT22;10382;49.140;9.234;2023-03-14T00:39:38;11.90;99.90
20446;DHT22;10382;49.140;9.234;2023-03-14T00:42:05;11.90;99.90
20446;DHT22;10382;49.140;9.234;2023-03-14T00:44:32;11.90;99.90
20446;DHT22;10382;49.140;9.234;2023-03-14T00:47:00;11.90;99.90
20446;DHT22;10382;49.140;9.234;2023-03-14T00:49:28;11.90;99.90
20446;DHT22;10382;49.140;9.234;2023-03-14T00:51:55;11.90;99.90
20446;DHT22;10382;49.140;9.234;2023-03-14T00:54:22;11.90;99.90
20446;DHT22;10382;49.140;9.234;2023-03-14T00:56:49;12.00;99.90
20446;DHT22;10382;49.140;9.234;2023-03-14T00:59:16;12.00;99.90
20446;DHT22;10382;49.140;9.234;2023-03-14T01:01:43;12.10;99.90
20446;DHT22;10382;49.140;9.234;2023-03-14T01:04:10;12.10;99.90
20446;DHT22;10382;49.140;9.234;2023-03-14T01:06:39;12.00;99.90
20446;DHT22;10382;49.140;9.234;2023-03-14T01:09:06;11.90;99.90
20446;DHT22;10382;49.140;9.234;2023-03-14T01:11:34;11.90;99.90
20446;DHT22;10382;49.140;9.234;2023-03-14T01:14:01;11.80;99.90
20446;DHT22;10382;49.140;9.234;2023-03-14T01:16:30;11.80;99.90
20446;DHT22;10382;49.140;9.234;2023-03-14T01:18:57;11.80;99.90
20446;DHT22;10382;49.140;9.234;2023-03-14T01:21:26;11.70;99.90
20446;DHT22;10382;49.140;9.234;2023-03-14T01:23:55;11.70;99.90
20446;DHT22;10382;49.140;9.234;2023-03-14T01:26:25;11.80;99.90
20446;DHT22;10382;49.140;9.234;2023-03-14T01:28:54;11.80;99.90
20446;DHT22;10382;49.140;9.234;2023-03-14T01:31:21;11.90;99.90
20446;DHT22;10382;49.140;9.234;2023-03-14T01:33:48;11.80;99.90
20446;DHT22;10382;49.140;9.234;2023-03-14T01:36:15;11.80;99.90
20446;DHT22;10382;49.140;9.234;2023-03-14T01:38:42;11.80;99.90
20446;DHT22;10382;49.140;9.234;2023-03-14T01:41:13;11.70;99.90
20446;DHT22;10382;49.140;9.234;2023-03-14T01:43:40;11.70;99.90
20446;DHT22;10382;49.140;9.234;2023-03-14T01:46:28;11.70;99.90
20446;DHT22;10382;49.140;9.234;2023-03-14T01:49:01;11.70;99.90
20446;DHT22;10382;49.140;9.234;2023-03-14T01:51:33;11.80;99.90
20446;DHT22;10382;49.140;9.234;2023-03-14T01:54:10;11.80;99.90
20446;DHT22;10382;49.140;9.234;2023-03-14T01:56:40;11.80;99.90
20446;DHT22;10382;49.140;9.234;2023-03-14T01:59:09;11.70;99.90
20446;DHT22;10382;49.140;9.234;2023-03-14T02:01:38;11.70;99.90
20446;DHT22;10382;49.140;9.234;2023-03-14T02:04:07;11.80;99.90
20446;DHT22;10382;49.140;9.234;2023-03-14T02:06:42;11.90;99.90
20446;DHT22;10382;49.140;9.234;2023-03-14T02:09:11;11.90;99.90
20446;DHT22;10382;49.140;9.234;2023-03-14T02:11:39;11.90;99.90
20446;DHT22;10382;49.140;9.234;2023-03-14T02:14:07;11.80;99.90
20446;DHT22;10382;49.140;9.234;2023-03-14T02:16:36;11.80;99.90
20446;DHT22;10382;49.140;9.234;2023-03-14T02:19:03;11.80;99.90
20446;DHT22;10382;49.140;9.234;2023-03-14T02:21:41;11.80;99.90
20446;DHT22;10382;49.140;9.234;2023-03-14T02:24:16;11.80;99.90
20446;DHT22;10382;49.140;9.234;2023-03-14T02:29:52;11.90;99.90
20446;DHT22;10382;49.140;9.234;2023-03-14T02:32:22;11.90;99.90
20446;DHT22;10382;49.140;9.234;2023-03-14T02:34:52;11.90;99.90
20446;DHT22;10382;49.140;9.234;2023-03-14T02:37:22;11.80;99.90
20446;DHT22;10382;49.140;9.234;2023-03-14T02:39:49;11.90;99.90
20446;DHT22;10382;49.140;9.234;2023-03-14T02:42:17;11.90;99.90
20446;DHT22;10382;49.140;9.234;2023-03-14T02:44:53;11.80;99.90
20446;DHT22;10382;49.140;9.234;2023-03-14T02:47:27;11.90;99.90
20446;DHT22;10382;49.140;9.234;2023-03-14T02:50:04;11.80;99.90
20446;DHT22;10382;49.140;9.234;2023-03-14T02:52:31;11.80;99.90
20446;DHT22;10382;49.140;9.234;2023-03-14T02:54:58;11.80;99.90
20446;DHT22;10382;49.140;9.234;2023-03-14T02:57:25;11.90;99.90
20446;DHT22;10382;49.140;9.234;2023-03-14T02:59:53;11.80;99.90
20446;DHT22;10382;49.140;9.234;2023-03-14T03:02:20;11.80;99.90
20446;DHT22;10382;49.140;9.234;2023-03-14T03:04:46;11.80;99.90
20446;DHT22;10382;49.140;9.234;2023-03-14T03:07:13;11.80;99.90
20446;DHT22;10382;49.140;9.234;2023-03-14T03:09:40;11.80;99.90
20446;DHT22;10382;49.140;9.234;2023-03-14T03:12:07;11.80;99.90
20446;DHT22;10382;49.140;9.234;2023-03-14T03:14:34;11.70;99.90
20446;DHT22;10382;49.140;9.234;2023-03-14T03:17:02;11.70;99.90
20446;DHT22;10382;49.140;9.234;2023-03-14T03:19:29;11.80;99.90
20446;DHT22;10382;49.140;9.234;2023-03-14T03:21:56;11.80;99.90
20446;DHT22;10382;49.140;9.234;2023-03-14T03:24:23;11.80;99.90
20446;DHT22;10382;49.140;9.234;2023-03-14T03:26:50;11.70;99.90
20446;DHT22;10382;49.140;9.234;2023-03-14T03:29:16;11.80;99.90
20446;DHT22;10382;49.140;9.234;2023-03-14T03:31:43;11.70;99.90
20446;DHT22;10382;49.140;9.234;2023-03-14T03:34:12;11.70;99.90
20446;DHT22;10382;49.140;9.234;2023-03-14T03:36:39;11.70;99.90
20446;DHT22;10382;49.140;9.234;2023-03-14T03:39:06;11.70;99.90
20446;DHT22;10382;49.140;9.234;2023-03-14T03:41:33;11.70;99.90
20446;DHT22;10382;49.140;9.234;2023-03-14T03:44:00;11.60;99.90
20446;DHT22;10382;49.140;9.234;2023-03-14T03:46:27;11.60;99.90
20446;DHT22;10382;49.140;9.234;2023-03-14T03:48:55;11.60;99.90
20446;DHT22;10382;49.140;9.234;2023-03-14T03:51:24;11.60;99.90
20446;DHT22;10382;49.140;9.234;2023-03-14T03:53:51;11.60;99.90
20446;DHT22;10382;49.140;9.234;2023-03-14T03:56:18;11.60;99.90
20446;DHT22;10382;49.140;9.234;2023-03-14T03:58:45;11.60;99.90
20446;DHT22;10382;49.140;9.234;2023-03-14T04:01:12;11.50;99.90
20446;DHT22;10382;49.140;9.234;2023-03-14T04:03:38;11.50;99.90
20446;DHT22;10382;49.140;9.234;2023-03-14T04:06:08;11.50;99.90
20446;DHT22;10382;49.140;9.234;2023-03-14T04:08:36;11.50;99.90
20446;DHT22;10382;49.140;9.234;2023-03-14T04:11:04;11.50;99.90
20446;DHT22;10382;49.140;9.234;2023-03-14T04:13:31;11.50;99.90
20446;DHT22;10382;49.140;9.234;2023-03-14T04:15:57;11.50;99.90
20446;DHT22;10382;49.140;9.234;2023-03-14T04:18:25;11.50;99.90
20446;DHT22;10382;49.140;9.234;2023-03-14T04:20:52;11.40;99.90
20446;DHT22;10382;49.140;9.234;2023-03-14T04:23:19;11.50;99.90
20446;DHT22;10382;49.140;9.234;2023-03-14T04:25:48;11.50;99.90
20446;DHT22;10382;49.140;9.234;2023-03-14T04:28:15;11.50;99.90
20446;DHT22;10382;49.140;9.234;2023-03-14T04:30:42;11.50;99.90
20446;DHT22;10382;49.140;9.234;2023-03-14T04:33:09;11.50;99.90
20446;DHT22;10382;49.140;9.234;2023-03-14T04:35:38;11.50;99.90
20446;DHT22;10382;49.140;9.234;2023-03-14T04:38:04;11.60;99.90
20446;DHT22;10382;49.140;9.234;2023-03-14T04:40:31;11.70;99.90
20446;DHT22;10382;49.140;9.234;2023-03-14T04:42:59;11.70;99.90
20446;DHT22;10382;49.140;9.234;2023-03-14T04:45:26;11.60;99.90
20446;DHT22;10382;49.140;9.234;2023-03-14T04:47:53;11.60;99.90
20446;DHT22;10382;49.140;9.234;2023-03-14T04:50:20;11.50;99.90
20446;DHT22;10382;49.140;9.234;2023-03-14T04:52:47;11.50;99.90
20446;DHT22;10382;49.140;9.234;2023-03-14T04:55:14;11.40;99.90
20446;DHT22;10382;49.140;9.234;2023-03-14T04:57:40;11.40;99.90
20446;DHT22;10382;49.140;9.234;2023-03-14T05:00:10;11.40;99.90
20446;DHT22;10382;49.140;9.234;2023-03-14T05:02:37;11.40;99.90
20446;DHT22;10382;49.140;9.234;2023-03-14T05:05:05;11.30;99.90
20446;DHT22;10382;49.140;9.234;2023-03-14T05:07:31;11.30;99.90
20446;DHT22;10382;49.140;9.234;2023-03-14T05:09:58;11.30;99.90
20446;DHT22;10382;49.140;9.234;2023-03-14T05:12:25;11.30;99.90
20446;DHT22;10382;49.140;9.234;2023-03-14T05:14:52;11.30;99.90
20446;DHT22;10382;49.140;9.234;2023-03-14T05:17:20;11.30;99.90
20446;DHT22;10382;49.140;9.234;2023-03-14T05:19:47;11.30;99.90
20446;DHT22;10382;49.140;9.234;2023-03-14T05:22:14;11.20;99.90
20446;DHT22;10382;49.140;9.234;2023-03-14T05:24:41;11.10;99.90
20446;DHT22;10382;49.140;9.234;2023-03-14T05:27:07;11.10;99.90
20446;DHT22;10382;49.140;9.234;2023-03-14T05:29:35;11.10;99.90
20446;DHT22;10382;49.140;9.234;2023-03-14T05:32:01;11.00;99.90
20446;DHT22;10382;49.140;9.234;2023-03-14T05:34:30;11.00;99.90
20446;DHT22;10382;49.140;9.234;2023-03-14T05:36:56;11.00;99.90
20446;DHT22;10382;49.140;9.234;2023-03-14T05:39:23;11.10;99.90
20446;DHT22;10382;49.140;9.234;2023-03-14T05:41:50;11.10;99.90
20446;DHT22;10382;49.140;9.234;2023-03-14T05:44:19;11.10;99.90
20446;DHT22;10382;49.140;9.234;2023-03-14T05:46:46;11.10;99.90
20446;DHT22;10382;49.140;9.234;2023-03-14T05:49:13;11.10;99.90
20446;DHT22;10382;49.140;9.234;2023-03-14T05:51:41;11.10;99.90
20446;DHT22;10382;49.140;9.234;2023-03-14T05:54:08;11.10;99.90
20446;DHT22;10382;49.140;9.234;2023-03-14T05:56:35;11.20;99.90
20446;DHT22;10382;49.140;9.234;2023-03-14T05:59:02;11.20;99.90
20446;DHT22;10382;49.140;9.234;2023-03-14T06:01:29;11.20;99.90
20446;DHT22;10382;49.140;9.234;2023-03-14T06:03:56;11.20;99.90
20446;DHT22;10382;49.140;9.234;2023-03-14T06:06:23;11.30;99.90
20446;DHT22;10382;49.140;9.234;2023-03-14T06:08:51;11.30;99.90
20446;DHT22;10382;49.140;9.234;2023-03-14T06:11:18;11.30;99.90
20446;DHT22;10382;49.140;9.234;2023-03-14T06:13:44;11.20;99.90
20446;DHT22;10382;49.140;9.234;2023-03-14T06:16:12;11.30;99.90
20446;DHT22;10382;49.140;9.234;2023-03-14T06:18:39;11.20;99.90
20446;DHT22;10382;49.140;9.234;2023-03-14T06:21:07;11.20;99.90
20446;DHT22;10382;49.140;9.234;2023-03-14T06:23:34;11.30;99.90
20446;DHT22;10382;49.140;9.234;2023-03-14T06:26:02;11.30;99.90
20446;DHT22;10382;49.140;9.234;2023-03-14T06:28:29;11.30;99.90
20446;DHT22;10382;49.140;9.234;2023-03-14T06:30:56;11.30;99.90
20446;DHT22;10382;49.140;9.234;2023-03-14T06:33:22;11.30;99.90
20446;DHT22;10382;49.140;9.234;2023-03-14T06:35:49;11.40;99.90
20446;DHT22;10382;49.140;9.234;2023-03-14T06:38:16;11.40;99.90
20446;DHT22;10382;49.140;9.234;2023-03-14T06:40:43;11.50;99.90
20446;DHT22;10382;49.140;9.234;2023-03-14T06:43:11;11.70;99.90
20446;DHT22;10382;49.140;9.234;2023-03-14T06:45:38;12.00;99.90
20446;DHT22;10382;49.140;9.234;2023-03-14T06:48:05;12.50;99.90
20446;DHT22;10382;49.140;9.234;2023-03-14T06:50:32;12.70;99.90
20446;DHT22;10382;49.140;9.234;2023-03-14T06:52:59;12.90;99.90
20446;DHT22;10382;49.140;9.234;2023-03-14T06:55:26;13.10;99.90
20446;DHT22;10382;49.140;9.234;2023-03-14T06:57:52;13.10;99.90
20446;DHT22;10382;49.140;9.234;2023-03-14T07:00:21;13.10;99.90
20446;DHT22;10382;49.140;9.234;2023-03-14T07:02:48;13.10;99.90
20446;DHT22;10382;49.140;9.234;2023-03-14T07:05:15;13.20;99.90
20446;DHT22;10382;49.140;9.234;2023-03-14T07:07:42;13.40;99.90
20446;DHT22;10382;49.140;9.234;2023-03-14T07:10:10;13.30;99.90
20446;DHT22;10382;49.140;9.234;2023-03-14T07:12:37;13.20;99.90
20446;DHT22;10382;49.140;9.234;2023-03-14T07:15:05;13.00;99.90
20446;DHT22;10382;49.140;9.234;2023-03-14T07:17:33;12.90;99.90
20446;DHT22;10382;49.140;9.234;2023-03-14T07:20:00;12.80;99.90
20446;DHT22;10382;49.140;9.234;2023-03-14T07:22:28;12.70;99.90
20446;DHT22;10382;49.140;9.234;2023-03-14T07:24:55;12.70;99.90
20446;DHT22;10382;49.140;9.234;2023-03-14T07:27:22;12.60;99.90
20446;DHT22;10382;49.140;9.234;2023-03-14T07:29:49;12.50;99.90
20446;DHT22;10382;49.140;9.234;2023-03-14T07:32:16;12.40;99.90
20446;DHT22;10382;49.140;9.234;2023-03-14T07:34:44;12.40;99.90
20446;DHT22;10382;49.140;9.234;2023-03-14T07:37:11;12.40;99.90
20446;DHT22;10382;49.140;9.234;2023-03-14T07:39:38;12.40;99.90
20446;DHT22;10382;49.140;9.234;2023-03-14T07:42:05;12.30;99.90
20446;DHT22;10382;49.140;9.234;2023-03-14T07:44:32;12.30;99.90
20446;DHT22;10382;49.140;9.234;2023-03-14T07:46:59;12.30;99.90
20446;DHT22;10382;49.140;9.234;2023-03-14T07:49:26;12.40;99.90
20446;DHT22;10382;49.140;9.234;2023-03-14T07:51:54;12.50;99.90
20446;DHT22;10382;49.140;9.234;2023-03-14T07:54:21;12.70;99.90
20446;DHT22;10382;49.140;9.234;2023-03-14T07:56:49;12.90;99.90
20446;DHT22;10382;49.140;9.234;2023-03-14T07:59:15;13.10;99.90
20446;DHT22;10382;49.140;9.234;2023-03-14T08:01:42;13.10;99.90
20446;DHT22;10382;49.140;9.234;2023-03-14T08:04:09;13.10;99.90
20446;DHT22;10382;49.140;9.234;2023-03-14T08:06:36;13.30;99.90
20446;DHT22;10382;49.140;9.234;2023-03-14T08:09:05;13.60;99.90
20446;DHT22;10382;49.140;9.234;2023-03-14T08:11:31;14.20;99.90
20446;DHT22;10382;49.140;9.234;2023-03-14T08:13:58;15.00;99.90
20446;DHT22;10382;49.140;9.234;2023-03-14T08:16:25;15.30;99.90
20446;DHT22;10382;49.140;9.234;2023-03-14T08:18:52;15.30;99.90
20446;DHT22;10382;49.140;9.234;2023-03-14T08:21:19;15.30;99.90
20446;DHT22;10382;49.140;9.234;2023-03-14T08:23:46;15.20;99.90
20446;DHT22;10382;49.140;9.234;2023-03-14T08:26:14;15.30;99.90
20446;DHT22;10382;49.140;9.234;2023-03-14T08:28:41;15.30;99.90
20446;DHT22;10382;49.140;9.234;2023-03-14T08:31:07;15.30;99.90
20446;DHT22;10382;49.140;9.234;2023-03-14T08:33:34;15.10;99.90
20446;DHT22;10382;49.140;9.234;2023-03-14T08:36:01;14.90;99.90
20446;DHT22;10382;49.140;9.234;2023-03-14T08:38:28;14.60;99.90
20446;DHT22;10382;49.140;9.234;2023-03-14T08:40:56;14.40;99.90
20446;DHT22;10382;49.140;9.234;2023-03-14T08:43:25;14.30;99.90
20446;DHT22;10382;49.140;9.234;2023-03-14T08:45:52;14.20;99.90
20446;DHT22;10382;49.140;9.234;2023-03-14T08:48:19;14.20;99.90
20446;DHT22;10382;49.140;9.234;2023-03-14T08:50:46;14.10;99.90
20446;DHT22;10382;49.140;9.234;2023-03-14T08:53:13;14.00;99.90
20446;DHT22;10382;49.140;9.234;2023-03-14T08:55:40;13.90;99.90
20446;DHT22;10382;49.140;9.234;2023-03-14T08:58:07;13.90;99.90
20446;DHT22;10382;49.140;9.234;2023-03-14T09:00:35;13.90;99.90
20446;DHT22;10382;49.140;9.234;2023-03-14T09:03:02;13.90;99.90
20446;DHT22;10382;49.140;9.234;2023-03-14T09:05:29;13.70;99.90
20446;DHT22;10382;49.140;9.234;2023-03-14T09:07:58;13.60;99.90
20446;DHT22;10382;49.140;9.234;2023-03-14T09:10:25;13.50;99.90
20446;DHT22;10382;49.140;9.234;2023-03-14T09:12:52;13.50;99.90
20446;DHT22;10382;49.140;9.234;2023-03-14T09:15:19;13.40;99.90
20446;DHT22;10382;49.140;9.234;2023-03-14T09:17:47;13.40;99.90
20446;DHT22;10382;49.140;9.234;2023-03-14T09:20:14;13.40;99.90
20446;DHT22;10382;49.140;9.234;2023-03-14T09:22:41;13.20;99.90
20446;DHT22;10382;49.140;9.234;2023-03-14T09:25:08;13.00;99.90
20446;DHT22;10382;49.140;9.234;2023-03-14T09:27:36;12.80;99.90
20446;DHT22;10382;49.140;9.234;2023-03-14T09:30:03;12.50;99.90
20446;DHT22;10382;49.140;9.234;2023-03-14T09:32:30;12.40;99.90
20446;DHT22;10382;49.140;9.234;2023-03-14T09:34:59;12.30;99.90
20446;DHT22;10382;49.140;9.234;2023-03-14T09:37:26;12.20;99.90
20446;DHT22;10382;49.140;9.234;2023-03-14T09:39:53;12.20;99.90
20446;DHT22;10382;49.140;9.234;2023-03-14T09:42:22;12.40;99.90
20446;DHT22;10382;49.140;9.234;2023-03-14T09:44:54;12.60;99.90
20446;DHT22;10382;49.140;9.234;2023-03-14T09:47:23;12.70;99.90
20446;DHT22;10382;49.140;9.234;2023-03-14T09:49:50;12.70;99.90
20446;DHT22;10382;49.140;9.234;2023-03-14T09:52:21;12.70;99.90
20446;DHT22;10382;49.140;9.234;2023-03-14T09:54:51;12.60;99.90
20446;DHT22;10382;49.140;9.234;2023-03-14T09:57:20;12.50;99.90
20446;DHT22;10382;49.140;9.234;2023-03-14T09:59:49;12.60;99.90
20446;DHT22;10382;49.140;9.234;2023-03-14T10:02:18;12.50;99.90
20446;DHT22;10382;49.140;9.234;2023-03-14T10:04:47;12.30;99.90
20446;DHT22;10382;49.140;9.234;2023-03-14T10:07:16;12.10;99.90
20446;DHT22;10382;49.140;9.234;2023-03-14T10:09:48;12.00;99.90
20446;DHT22;10382;49.140;9.234;2023-03-14T10:12:16;12.00;99.90
20446;DHT22;10382;49.140;9.234;2023-03-14T10:14:47;12.10;99.90
20446;DHT22;10382;49.140;9.234;2023-03-14T10:17:15;12.20;99.90
20446;DHT22;10382;49.140;9.234;2023-03-14T10:19:53;12.20;99.90
20446;DHT22;10382;49.140;9.234;2023-03-14T10:22:21;12.30;99.90
20446;DHT22;10382;49.140;9.234;2023-03-14T10:24:53;12.40;99.90
20446;DHT22;10382;49.140;9.234;2023-03-14T10:27:22;12.50;99.90
20446;DHT22;10382;49.140;9.234;2023-03-14T10:29:55;12.50;99.90
20446;DHT22;10382;49.140;9.234;2023-03-14T10:32:28;12.60;99.90
20446;DHT22;10382;49.140;9.234;2023-03-14T10:35:20;12.80;99.90
20446;DHT22;10382;49.140;9.234;2023-03-14T10:37:56;12.90;99.90
20446;DHT22;10382;49.140;9.234;2023-03-14T10:40:27;12.90;99.90
20446;DHT22;10382;49.140;9.234;2023-03-14T10:42:54;13.00;99.90
20446;DHT22;10382;49.140;9.234;2023-03-14T10:45:33;13.20;99.90
20446;DHT22;10382;49.140;9.234;2023-03-14T10:48:16;13.20;99.90
20446;DHT22;10382;49.140;9.234;2023-03-14T10:50:48;13.20;99.90
20446;DHT22;10382;49.140;9.234;2023-03-14T10:53:17;13.20;99.90
20446;DHT22;10382;49.140;9.234;2023-03-14T10:55:46;13.20;99.90
20446;DHT22;10382;49.140;9.234;2023-03-14T10:58:24;13.20;99.90
20446;DHT22;10382;49.140;9.234;2023-03-14T11:01:05;13.20;99.90
20446;DHT22;10382;49.140;9.234;2023-03-14T11:03:36;13.30;99.90
20446;DHT22;10382;49.140;9.234;2023-03-14T11:06:08;13.30;99.90
20446;DHT22;10382;49.140;9.234;2023-03-14T11:08:44;13.20;99.90
20446;DHT22;10382;49.140;9.234;2023-03-14T11:11:20;13.00;99.90
20446;DHT22;10382;49.140;9.234;2023-03-14T11:14:00;12.90;99.90
20446;DHT22;10382;49.140;9.234;2023-03-14T11:16:34;13.00;99.90
20446;DHT22;10382;49.140;9.234;2023-03-14T11:19:41;13.10;99.90
20446;DHT22;10382;49.140;9.234;2023-03-14T11:22:16;13.10;99.90
20446;DHT22;10382;49.140;9.234;2023-03-14T11:25:00;13.00;99.90
20446;DHT22;10382;49.140;9.234;2023-03-14T11:27:39;12.90;99.90
20446;DHT22;10382;49.140;9.234;2023-03-14T11:30:17;13.00;99.90
20446;DHT22;10382;49.140;9.234;2023-03-14T11:32:46;13.20;99.90
20446;DHT22;10382;49.140;9.234;2023-03-14T11:35:24;13.30;99.90
20446;DHT22;10382;49.140;9.234;2023-03-14T11:37:54;13.20;99.90
20446;DHT22;10382;49.140;9.234;2023-03-14T11:40:23;12.90;99.90
20446;DHT22;10382;49.140;9.234;2023-03-14T11:43:09;12.70;99.90
20446;DHT22;10382;49.140;9.234;2023-03-14T11:45:40;12.60;99.90
20446;DHT22;10382;49.140;9.234;2023-03-14T11:48:16;12.50;99.90
20446;DHT22;10382;49.140;9.234;2023-03-14T11:50:48;12.50;99.90
20446;DHT22;10382;49.140;9.234;2023-03-14T11:53:18;12.30;99.90
20446;DHT22;10382;49.140;9.234;2023-03-14T11:55:47;12.10;99.90
20446;DHT22;10382;49.140;9.234;2023-03-14T11:58:20;12.00;99.90
20446;DHT22;10382;49.140;9.234;2023-03-14T12:00:49;11.90;99.90
20446;DHT22;10382;49.140;9.234;2023-03-14T12:03:23;11.90;99.90
20446;DHT22;10382;49.140;9.234;2023-03-14T12:06:09;12.00;99.90
20446;DHT22;10382;49.140;9.234;2023-03-14T12:08:44;12.00;99.90
20446;DHT22;10382;49.140;9.234;2023-03-14T12:11:30;12.00;99.90
20446;DHT22;10382;49.140;9.234;2023-03-14T12:14:00;12.10;99.90
20446;DHT22;10382;49.140;9.234;2023-03-14T12:16:35;12.00;99.90
20446;DHT22;10382;49.140;9.234;2023-03-14T12:19:37;11.80;99.90
20446;DHT22;10382;49.140;9.234;2023-03-14T12:25:02;11.50;99.90
20446;DHT22;10382;49.140;9.234;2023-03-14T12:27:45;11.40;99.90
20446;DHT22;10382;49.140;9.234;2023-03-14T12:30:28;11.40;99.90
20446;DHT22;10382;49.140;9.234;2023-03-14T12:33:29;11.40;99.90
20446;DHT22;10382;49.140;9.234;2023-03-14T12:36:20;11.20;99.90
20446;DHT22;10382;49.140;9.234;2023-03-14T12:39:21;10.90;99.90
20446;DHT22;10382;49.140;9.234;2023-03-14T12:41:52;10.40;99.90
20446;DHT22;10382;49.140;9.234;2023-03-14T12:44:41;10.20;99.90
20446;DHT22;10382;49.140;9.234;2023-03-14T12:47:45;10.10;99.90
20446;DHT22;10382;49.140;9.234;2023-03-14T12:50:19;9.90;99.90
20446;DHT22;10382;49.140;9.234;2023-03-14T12:55:44;9.90;99.90
20446;DHT22;10382;49.140;9.234;2023-03-14T12:58:17;10.00;99.90
20446;DHT22;10382;49.140;9.234;2023-03-14T13:00:55;10.10;99.90
20446;DHT22;10382;49.140;9.234;2023-03-14T13:03:26;10.00;99.90
20446;DHT22;10382;49.140;9.234;2023-03-14T13:05:55;9.90;99.90
20446;DHT22;10382;49.140;9.234;2023-03-14T13:08:35;10.00;99.90
20446;DHT22;10382;49.140;9.234;2023-03-14T13:11:05;10.10;99.90
20446;DHT22;10382;49.140;9.234;2023-03-14T13:13:35;10.20;99.90
20446;DHT22;10382;49.140;9.234;2023-03-14T13:16:04;10.10;99.90
20446;DHT22;10382;49.140;9.234;2023-03-14T13:18:35;10.10;99.90
20446;DHT22;10382;49.140;9.234;2023-03-14T13:21:05;10.00;99.90
20446;DHT22;10382;49.140;9.234;2023-03-14T13:23:36;9.90;99.90
20446;DHT22;10382;49.140;9.234;2023-03-14T13:26:06;10.00;99.90
20446;DHT22;10382;49.140;9.234;2023-03-14T13:28:36;10.00;99.90
20446;DHT22;10382;49.140;9.234;2023-03-14T13:31:03;10.10;99.90
20446;DHT22;10382;49.140;9.234;2023-03-14T13:33:34;10.10;99.90
20446;DHT22;10382;49.140;9.234;2023-03-14T13:36:02;10.10;99.90
20446;DHT22;10382;49.140;9.234;2023-03-14T13:38:31;10.10;99.90
20446;DHT22;10382;49.140;9.234;2023-03-14T13:41:00;10.10;99.90
20446;DHT22;10382;49.140;9.234;2023-03-14T13:43:29;10.30;99.90
20446;DHT22;10382;49.140;9.234;2023-03-14T13:46:03;10.40;99.90
20446;DHT22;10382;49.140;9.234;2023-03-14T13:48:32;10.50;99.90
20446;DHT22;10382;49.140;9.234;2023-03-14T13:51:03;10.50;99.90
20446;DHT22;10382;49.140;9.234;2023-03-14T13:53:31;10.60;99.90
20446;DHT22;10382;49.140;9.234;2023-03-14T13:56:02;10.80;99.90
20446;DHT22;10382;49.140;9.234;2023-03-14T13:58:31;10.90;99.90
20446;DHT22;10382;49.140;9.234;2023-03-14T14:01:04;11.00;99.90
20446;DHT22;10382;49.140;9.234;2023-03-14T14:03:34;11.10;99.90
20446;DHT22;10382;49.140;9.234;2023-03-14T14:06:04;11.00;99.90
20446;DHT22;10382;49.140;9.234;2023-03-14T14:08:33;11.10;99.90
20446;DHT22;10382;49.140;9.234;2023-03-14T14:11:02;11.10;99.90
20446;DHT22;10382;49.140;9.234;2023-03-14T14:13:32;11.10;99.90
20446;DHT22;10382;49.140;9.234;2023-03-14T14:16:01;11.30;99.90
20446;DHT22;10382;49.140;9.234;2023-03-14T14:18:31;11.40;99.90
20446;DHT22;10382;49.140;9.234;2023-03-14T14:20:59;11.40;99.90
20446;DHT22;10382;49.140;9.234;2023-03-14T14:23:28;11.60;99.90
20446;DHT22;10382;49.140;9.234;2023-03-14T14:25:57;11.50;99.90
20446;DHT22;10382;49.140;9.234;2023-03-14T14:28:26;11.40;99.90
20446;DHT22;10382;49.140;9.234;2023-03-14T14:31:03;11.30;99.90
20446;DHT22;10382;49.140;9.234;2023-03-14T14:33:38;11.00;99.90
20446;DHT22;10382;49.140;9.234;2023-03-14T14:36:19;10.80;99.90
20446;DHT22;10382;49.140;9.234;2023-03-14T14:38:53;10.70;99.90
20446;DHT22;10382;49.140;9.234;2023-03-14T14:41:21;10.50;99.90
20446;DHT22;10382;49.140;9.234;2023-03-14T14:43:48;10.40;99.90
20446;DHT22;10382;49.140;9.234;2023-03-14T14:46:19;10.30;99.90
20446;DHT22;10382;49.140;9.234;2023-03-14T14:48:46;10.20;99.90
20446;DHT22;10382;49.140;9.234;2023-03-14T14:51:24;10.40;99.90
20446;DHT22;10382;49.140;9.234;2023-03-14T14:54:03;10.40;99.90
20446;DHT22;10382;49.140;9.234;2023-03-14T14:56:35;10.50;99.90
20446;DHT22;10382;49.140;9.234;2023-03-14T14:59:03;10.70;99.90
20446;DHT22;10382;49.140;9.234;2023-03-14T15:01:34;10.60;99.90
20446;DHT22;10382;49.140;9.234;2023-03-14T15:04:01;10.60;99.90
20446;DHT22;10382;49.140;9.234;2023-03-14T15:06:30;10.70;99.90
20446;DHT22;10382;49.140;9.234;2023-03-14T15:08:57;10.80;99.90
20446;DHT22;10382;49.140;9.234;2023-03-14T15:11:26;11.60;99.90
20446;DHT22;10382;49.140;9.234;2023-03-14T15:13:54;13.20;95.70
20446;DHT22;10382;49.140;9.234;2023-03-14T15:16:22;13.80;91.30
20446;DHT22;10382;49.140;9.234;2023-03-14T15:18:53;14.40;88.90
20446;DHT22;10382;49.140;9.234;2023-03-14T15:21:21;15.40;85.20
20446;DHT22;10382;49.140;9.234;2023-03-14T15:23:49;16.10;76.20
20446;DHT22;10382;49.140;9.234;2023-03-14T15:26:18;15.70;73.30
20446;DHT22;10382;49.140;9.234;2023-03-14T15:28:47;15.50;72.60
20446;DHT22;10382;49.140;9.234;2023-03-14T15:31:15;15.60;72.10
20446;DHT22;10382;49.140;9.234;2023-03-14T15:33:43;16.20;71.50
20446;DHT22;10382;49.140;9.234;2023-03-14T15:36:19;17.00;71.00
20446;DHT22;10382;49.140;9.234;2023-03-14T15:38:47;17.60;64.20
20446;DHT22;10382;49.140;9.234;2023-03-14T15:41:14;17.80;62.00
20446;DHT22;10382;49.140;9.234;2023-03-14T15:43:42;17.40;60.90
20446;DHT22;10382;49.140;9.234;2023-03-14T15:46:10;17.10;63.00
20446;DHT22;10382;49.140;9.234;2023-03-14T15:48:37;16.60;60.90
20446;DHT22;10382;49.140;9.234;2023-03-14T15:51:05;16.10;61.10
20446;DHT22;10382;49.140;9.234;2023-03-14T15:53:31;15.70;62.70